createdAt,value
2019-02-10T00:11:44.840Z,7.45
2019-02-10T00:16:49.415Z,7.41
2019-02-10T00:21:53.746Z,7.35
2019-02-10T00:27:18.000Z,7.32
2019-02-10T00:32:41.461Z,7.27
2019-02-10T00:37:45.747Z,7.18
2019-02-10T00:53:42.990Z,6.96
2019-02-10T00:58:47.232Z,7.00
2019-02-10T01:03:51.467Z,6.99
2019-02-10T01:08:55.873Z,6.95
2019-02-10T01:14:00.136Z,6.91
2019-02-10T01:19:45.008Z,6.85
2019-02-10T01:24:49.625Z,6.79
2019-02-10T01:30:13.805Z,6.80
2019-02-10T01:35:18.177Z,6.81
2019-02-10T01:40:22.486Z,6.80
2019-02-10T01:45:26.709Z,6.74
2019-02-10T01:50:50.013Z,6.73
2019-02-10T01:55:54.653Z,6.75
2019-02-10T02:00:58.995Z,6.70
2019-02-10T02:06:22.139Z,6.65
2019-02-10T02:11:45.437Z,6.60
2019-02-10T02:16:49.664Z,6.61
2019-02-10T02:22:12.970Z,6.57
2019-02-10T02:27:17.217Z,6.55
2019-02-10T02:32:21.453Z,6.53
2019-02-10T02:37:25.721Z,6.49
2019-02-10T02:42:29.965Z,6.45
2019-02-10T02:53:02.662Z,6.49
2019-02-10T02:58:18.289Z,6.48
2019-02-10T03:03:22.538Z,6.50
2019-02-10T03:08:27.751Z,6.52
2019-02-10T03:24:29.915Z,6.31
2019-02-10T03:29:53.149Z,6.28
2019-02-10T03:34:57.533Z,6.14
2019-02-10T03:40:02.226Z,6.05
2019-02-10T03:45:06.531Z,6.05
2019-02-10T03:50:29.830Z,6.03
2019-02-10T03:55:34.154Z,6.04
2019-02-10T04:00:38.468Z,5.97
2019-02-10T04:05:42.713Z,5.91
2019-02-10T04:16:34.725Z,5.90
2019-02-10T04:21:38.954Z,5.92
2019-02-10T04:26:43.273Z,5.93
2019-02-10T04:32:06.573Z,5.93
2019-02-10T04:37:10.810Z,5.90
2019-02-10T04:42:15.049Z,5.93
2019-02-10T04:52:29.395Z,5.94
2019-02-10T04:57:52.689Z,5.93
2019-02-10T05:02:56.962Z,6.00
2019-02-10T05:08:01.576Z,6.04
2019-02-10T05:13:05.849Z,6.08
2019-02-10T05:23:39.298Z,6.26
2019-02-10T05:28:43.541Z,6.36
2019-02-10T05:34:06.820Z,6.37
2019-02-10T05:39:11.069Z,6.35
2019-02-10T05:44:15.312Z,6.47
2019-02-10T05:49:19.539Z,6.49
2019-02-10T05:59:33.498Z,6.52
2019-02-10T06:04:40.696Z,6.50
2019-02-10T06:10:04.330Z,6.54
2019-02-10T06:15:48.487Z,6.57
2019-02-10T06:20:52.784Z,6.67
2019-02-10T06:25:57.031Z,6.85
2019-02-10T06:36:30.346Z,6.93
2019-02-10T06:57:03.904Z,7.07
2019-02-10T07:02:27.434Z,7.14
2019-02-10T07:13:00.215Z,7.23
2019-02-10T07:18:42.758Z,7.30
2019-02-10T07:24:25.062Z,7.32
2019-02-10T07:30:07.339Z,7.42
2019-02-10T07:36:04.542Z,7.37
2019-02-10T07:47:34.920Z,7.51
2019-02-10T07:59:08.824Z,7.70
2019-02-10T08:04:51.105Z,7.77
2019-02-10T08:10:06.680Z,7.79
2019-02-10T08:15:33.592Z,7.80
2019-02-10T08:21:15.867Z,7.90
2019-02-10T08:26:58.139Z,7.93
2019-02-10T08:32:40.403Z,7.99
2019-02-10T08:44:11.053Z,8.22
2019-02-10T08:49:53.331Z,8.28
2019-02-10T08:55:37.619Z,8.24
2019-02-10T09:01:00.941Z,8.26
2019-02-10T09:06:24.555Z,8.21
2019-02-10T09:11:40.139Z,8.27
2019-02-10T09:16:44.397Z,8.31
2019-02-10T09:26:58.877Z,8.37
2019-02-10T09:32:03.116Z,8.33
2019-02-10T09:37:07.589Z,8.34
2019-02-10T09:42:11.811Z,8.27
2019-02-10T09:47:35.116Z,8.22
2019-02-10T09:52:58.412Z,8.20
2019-02-10T09:58:02.769Z,8.15
2019-02-10T10:03:07.390Z,8.16
2019-02-10T10:08:11.918Z,8.19
2019-02-10T10:18:26.600Z,8.24
2019-02-10T10:23:30.827Z,8.23
2019-02-10T10:28:35.390Z,8.12
2019-02-10T10:33:58.768Z,8.18
2019-02-10T10:39:27.223Z,8.28
2019-02-10T10:44:28.115Z,8.25
2019-02-10T10:49:32.351Z,8.29
2019-02-10T10:54:42.656Z,8.29
2019-02-10T10:59:42.558Z,8.36
2019-02-10T11:04:47.099Z,8.32
2019-02-10T11:09:52.015Z,8.37
2019-02-10T11:15:07.921Z,8.46
2019-02-10T11:20:24.080Z,8.41
2019-02-10T11:25:29.039Z,8.46
2019-02-10T11:41:51.682Z,8.39
2019-02-10T11:47:14.972Z,8.38
2019-02-10T11:52:38.283Z,8.40
2019-02-10T11:57:42.516Z,8.43
2019-02-10T12:02:46.831Z,8.43
2019-02-10T12:13:01.435Z,8.38
2019-02-10T12:18:05.693Z,8.42
2019-02-10T12:23:09.973Z,8.38
2019-02-10T12:28:33.565Z,8.36
2019-02-10T12:33:37.800Z,8.34
2019-02-10T12:44:11.268Z,8.50
2019-02-10T13:10:35.305Z,9.08
2019-02-10T13:21:07.863Z,9.14
2019-02-10T13:26:12.123Z,9.03
2019-02-10T13:31:16.397Z,8.94
2019-02-10T13:36:20.623Z,8.80
2019-02-10T13:46:53.644Z,8.77
2019-02-10T13:51:57.895Z,8.73
2019-02-10T13:57:21.218Z,8.69
2019-02-10T14:02:44.559Z,8.63
2019-02-10T14:08:07.883Z,8.68
2019-02-10T14:18:41.308Z,8.45
2019-02-10T14:24:04.605Z,8.46
2019-02-10T14:29:09.423Z,8.36
2019-02-10T14:34:32.805Z,8.32
2019-02-10T14:39:56.499Z,8.23
2019-02-10T14:45:00.720Z,8.10
2019-02-10T14:55:33.988Z,7.92
2019-02-10T15:00:38.217Z,7.83
2019-02-10T15:06:01.834Z,7.84
2019-02-10T15:11:06.073Z,7.79
2019-02-10T15:16:10.296Z,7.69
2019-02-10T15:21:14.634Z,7.66
2019-02-10T15:26:18.876Z,7.60
2019-02-10T15:31:42.360Z,7.54
2019-02-10T15:36:46.611Z,7.58
2019-02-10T15:42:09.988Z,7.49
2019-02-10T15:47:33.649Z,7.53
2019-02-10T15:52:38.668Z,7.51
2019-02-10T15:58:01.969Z,7.44
2019-02-10T16:03:06.261Z,7.43
2019-02-10T16:08:10.486Z,7.46
2019-02-10T16:13:14.720Z,7.41
2019-02-10T16:23:47.999Z,7.15
2019-02-10T16:28:52.290Z,6.81
2019-02-10T16:34:08.441Z,6.60
2019-02-10T16:44:43.299Z,6.43
2019-02-10T17:00:27.536Z,6.41
2019-02-10T17:05:31.780Z,6.35
2019-02-10T17:10:36.040Z,6.20
2019-02-10T17:15:40.301Z,6.01
2019-02-10T17:21:23.971Z,5.58
2019-02-10T17:26:28.211Z,5.50
2019-02-10T17:31:51.517Z,5.42
2019-02-10T17:36:55.793Z,5.32
2019-02-10T17:42:00.021Z,5.26
2019-02-10T17:47:23.356Z,5.25
2019-02-10T17:52:31.989Z,5.17
2019-02-10T18:02:43.678Z,5.03
2019-02-10T18:07:47.915Z,4.95
2019-02-10T18:13:11.678Z,4.99
2019-02-10T18:18:53.889Z,4.99
2019-02-10T18:24:36.059Z,4.99
2019-02-10T18:29:59.312Z,5.03
2019-02-10T18:35:23.964Z,5.09
2019-02-10T18:40:58.912Z,5.11
2019-02-10T18:46:30.423Z,5.14
2019-02-10T18:51:53.649Z,5.10
2019-02-10T18:57:16.833Z,5.13
2019-02-10T19:02:29.977Z,5.14
2019-02-10T19:07:53.282Z,5.18
2019-02-10T19:13:16.436Z,5.18
2019-02-10T19:18:27.818Z,5.22
2019-02-10T19:24:10.134Z,5.22
2019-02-10T19:29:52.341Z,5.28
2019-02-10T19:35:15.786Z,5.24
2019-02-10T19:40:39.000Z,5.28
2019-02-10T19:46:16.655Z,5.25
2019-02-10T19:51:58.897Z,5.21
2019-02-10T19:57:22.881Z,5.17
2019-02-10T20:02:46.024Z,5.19
2019-02-10T20:08:09.375Z,5.10
2019-02-10T20:13:51.681Z,5.08
2019-02-10T20:19:14.870Z,5.06
2019-02-10T20:24:57.314Z,5.05
2019-02-10T20:30:39.526Z,5.05
2019-02-10T20:36:03.029Z,5.05
2019-02-10T20:41:45.260Z,5.03
2019-02-10T20:46:58.137Z,5.01
2019-02-10T20:52:46.217Z,5.00
2019-02-10T20:58:05.515Z,4.96
2019-02-10T21:03:48.087Z,4.95
2019-02-10T21:09:11.961Z,4.85
2019-02-10T21:14:54.202Z,4.78
2019-02-10T21:20:37.901Z,4.69
2019-02-10T21:26:01.127Z,4.59
2019-02-10T21:31:24.323Z,4.54
2019-02-10T21:37:08.250Z,4.48
2019-02-10T21:42:29.003Z,4.45
2019-02-10T21:48:10.952Z,4.38
2019-02-10T21:53:34.580Z,4.35
2019-02-10T21:58:38.905Z,4.24
2019-02-10T22:04:02.204Z,4.21
2019-02-10T22:14:56.414Z,4.09
2019-02-10T22:20:19.796Z,4.01
2019-02-10T22:36:21.361Z,3.92
2019-02-10T22:41:25.663Z,3.89
2019-02-10T22:46:48.967Z,3.81
2019-02-10T23:02:50.665Z,3.64
2019-02-10T23:07:55.270Z,3.57
2019-02-10T23:18:09.091Z,3.48
2019-02-10T23:23:13.343Z,3.39
2019-02-10T23:28:17.957Z,3.31
2019-02-10T23:33:22.213Z,3.27
2019-02-10T23:43:35.803Z,3.16
2019-02-10T23:48:59.092Z,3.09
2019-02-10T23:59:14.370Z,3.04
